地図

経路データ

SID SEASON NUMBER BASIN SUBBASIN NAME ISO_TIME NATURE LAT LON WMO_WIND WMO_PRES WMO_AGENCY TRACK_TYPE DIST2LAND LANDFALL IFLAG USA_AGENCY USA_ATCF_ID USA_LAT USA_LON USA_RECORD USA_STATUS USA_WIND USA_PRES USA_SSHS USA_R34_NE USA_R34_SE USA_R34_SW USA_R34_NW USA_R50_NE USA_R50_SE USA_R50_SW USA_R50_NW USA_R64_NE USA_R64_SE USA_R64_SW USA_R64_NW USA_POCI USA_ROCI USA_RMW USA_EYE TOKYO_LAT TOKYO_LON TOKYO_GRADE TOKYO_WIND TOKYO_PRES TOKYO_R50_DIR TOKYO_R50_LONG TOKYO_R50_SHORT TOKYO_R30_DIR TOKYO_R30_LONG TOKYO_R30_SHORT TOKYO_LAND CMA_LAT CMA_LON CMA_CAT CMA_WIND CMA_PRES HKO_LAT HKO_LON HKO_CAT HKO_WIND HKO_PRES NEWDELHI_LAT NEWDELHI_LON NEWDELHI_GRADE NEWDELHI_WIND NEWDELHI_PRES NEWDELHI_CI NEWDELHI_DP NEWDELHI_POCI REUNION_LAT REUNION_LON REUNION_TYPE REUNION_WIND REUNION_PRES REUNION_TNUM REUNION_CI REUNION_RMW REUNION_R34_NE REUNION_R34_SE REUNION_R34_SW REUNION_R34_NW REUNION_R50_NE REUNION_R50_SE REUNION_R50_SW REUNION_R50_NW REUNION_R64_NE REUNION_R64_SE REUNION_R64_SW REUNION_R64_NW BOM_LAT BOM_LON BOM_TYPE BOM_WIND BOM_PRES BOM_TNUM BOM_CI BOM_RMW BOM_R34_NE BOM_R34_SE BOM_R34_SW BOM_R34_NW BOM_R50_NE BOM_R50_SE BOM_R50_SW BOM_R50_NW BOM_R64_NE BOM_R64_SE BOM_R64_SW BOM_R64_NW BOM_ROCI BOM_POCI BOM_EYE BOM_POS_METHOD BOM_PRES_METHOD NADI_LAT NADI_LON NADI_CAT NADI_WIND NADI_PRES WELLINGTON_LAT WELLINGTON_LON WELLINGTON_WIND WELLINGTON_PRES DS824_LAT DS824_LON DS824_STAGE DS824_WIND DS824_PRES TD9636_LAT TD9636_LON TD9636_STAGE TD9636_WIND TD9636_PRES TD9635_LAT TD9635_LON TD9635_WIND TD9635_PRES TD9635_ROCI NEUMANN_LAT NEUMANN_LON NEUMANN_CLASS NEUMANN_WIND NEUMANN_PRES MLC_LAT MLC_LON MLC_CLASS MLC_WIND MLC_PRES USA_GUST BOM_GUST BOM_GUST_PER REUNION_GUST REUNION_GUST_PER USA_SEAHGT USA_SEARAD_NE USA_SEARAD_SE USA_SEARAD_SW USA_SEARAD_NW STORM_SPEED STORM_DIR
1899313S11068 1900 48 SI MM NOT_NAMED 1899-11-09 00:00:00 TS -11.0000 68.0000 main 1500 1446 _________O____ -1 -11.0000 68.0000 TC 11 234
1899313S11068 1900 48 SI MM NOT_NAMED 1899-11-09 03:00:00 TS -11.3276 67.5476 main 1438 1375 _________P____ -1 -11.3276 67.5476 TC 11 232
1899313S11068 1900 48 SI MM NOT_NAMED 1899-11-09 06:00:00 TS -11.7000 67.1000 main 1375 1313 _________O____ -1 -11.7000 67.1000 TC 12 227
1899313S11068 1900 48 SI MM NOT_NAMED 1899-11-09 09:00:00 TS -12.1425 66.6701 main 1313 1243 _________P____ -1 -12.1425 66.6701 TC 12 221
1899313S11068 1900 48 SI MM NOT_NAMED 1899-11-09 12:00:00 TS -12.6000 66.3000 main 1243 1188 _________O____ -1 -12.6000 66.3000 TC 11 217
1899313S11068 1900 48 SI MM NOT_NAMED 1899-11-09 15:00:00 TS -12.9999 66.0124 main 1188 1142 _________P____ -1 -12.9999 66.0124 TC 9 211
1899313S11068 1900 48 SI MM NOT_NAMED 1899-11-09 18:00:00 TS -13.4000 65.8000 main 1142 1096 _________O____ -1 -13.4000 65.8000 TC 9 205
1899313S11068 1900 48 SI MM NOT_NAMED 1899-11-09 21:00:00 TS -13.8275 65.6125 main 1096 1052 _________P____ -1 -13.8275 65.6125 TC 10 198
1899313S11068 1900 48 SI MM NOT_NAMED 1899-11-10 00:00:00 TS -14.3000 65.5000 main 1052 1017 _________O____ -1 -14.3000 65.5000 TC 10 188
1899313S11068 1900 48 SI MM NOT_NAMED 1899-11-10 03:00:00 TS -14.8350 65.4625 main 1017 979 _________P____ -1 -14.8350 65.4625 TC 11 180
1899313S11068 1900 48 SI MM NOT_NAMED 1899-11-10 06:00:00 TS -15.4000 65.5000 main 979 958 _________O____ -1 -15.4000 65.5000 TC 11 174
1899313S11068 1900 48 SI MM NOT_NAMED 1899-11-10 09:00:00 TS -15.9650 65.5849 main 952 935 _________P____ -1 -15.9650 65.5849 TC 11 170
1899313S11068 1900 48 SI MM NOT_NAMED 1899-11-10 12:00:00 TS -16.5000 65.7000 main 935 924 _________O____ -1 -16.5000 65.7000 TC 10 169
1899313S11068 1900 48 SI MM NOT_NAMED 1899-11-10 15:00:00 TS -16.9725 65.8001 main 920 910 _________P____ -1 -16.9725 65.8001 TC 9 168
1899313S11068 1900 48 SI MM NOT_NAMED 1899-11-10 18:00:00 TS -17.4000 65.9000 main 911 903 _________O____ -1 -17.4000 65.9000 TC 8 168
1899313S11068 1900 48 SI MM NOT_NAMED 1899-11-10 21:00:00 TS -17.7475 65.9779 main 909 898 _________P____ -1 -17.7475 65.9779 TC 8 167
1899313S11068 1900 48 SI MM NOT_NAMED 1899-11-11 00:00:00 TS -18.2000 66.1000 main 902 898 _________O____ -1 -18.2000 66.1000 TC 13 165
1899313S11068 1900 48 SI MM NOT_NAMED 1899-11-11 03:00:00 TS -18.9475 66.3199 main 903 901 _________P____ -1 -18.9475 66.3199 TC 17 164
1899313S11068 1900 48 SI MM NOT_NAMED 1899-11-11 06:00:00 TS -19.8000 66.6000 main 920 919 _________O____ -1 -19.8000 66.6000 TC 17 161
1899313S11068 1900 48 SI MM NOT_NAMED 1899-11-11 09:00:00 TS -20.5725 66.9000 main 948 948 _________P____ -1 -20.5725 66.9000 TC 16 159
1899313S11068 1900 48 SI MM NOT_NAMED 1899-11-11 12:00:00 TS -21.3000 67.2000 main 983 983 _________O____ -1 -21.3000 67.2000 TC 15 160
1899313S11068 1900 48 SI MM NOT_NAMED 1899-11-11 15:00:00 TS -21.9649 67.4505 main 1023 1023 _________P____ -1 -21.9649 67.4505 TC 14 160
1899313S11068 1900 48 SI MM NOT_NAMED 1899-11-11 18:00:00 TS -22.6000 67.7000 main 1055 1055 _________O____ -1 -22.6000 67.7000 TC 14 159
1899313S11068 1900 48 SI MM NOT_NAMED 1899-11-11 21:00:00 TS -23.2452 67.9867 main 1101 1101 _________P____ -1 -23.2452 67.9867 TC 14 157
1899313S11068 1900 48 SI MM NOT_NAMED 1899-11-12 00:00:00 TS -23.9000 68.3000 main 1153 _________O____ -1 -23.9000 68.3000 TC 14 156

IBTrACS Databaseについて

本データベースは、米国NOAAが公開する1842年以降の世界の熱帯低気圧のベストトラックデータアーカイブInternational Best Track Archive for Climate Stewardship (IBTrACS)を、ウェブで閲覧しやすい形式に変換したものです。

最終更新日:2021-11-26